createdAt,value
2022-08-03T00:01:26.567Z,100626.72
2022-08-03T00:03:53.502Z,100660.72
2022-08-03T00:06:20.379Z,100672.25
2022-08-03T00:08:47.387Z,100675.03
2022-08-03T00:11:14.249Z,100665.41
2022-08-03T00:13:41.122Z,100665.16
2022-08-03T00:16:08.588Z,100667.16
2022-08-03T00:18:35.435Z,100678.03
2022-08-03T00:21:02.615Z,100672.66
2022-08-03T00:23:50.978Z,100667.41
2022-08-03T00:26:16.336Z,100670.63
2022-08-03T00:28:43.751Z,100672.44
2022-08-03T00:31:13.729Z,100672.31
2022-08-03T00:33:57.988Z,100673.88
2022-08-03T00:36:26.195Z,100667.94
2022-08-03T00:38:53.054Z,100672.44
2022-08-03T00:41:20.489Z,100671.88
2022-08-03T00:43:47.821Z,100665.13
2022-08-03T00:46:19.217Z,100679.44
2022-08-03T00:48:49.429Z,100674.72
2022-08-03T00:51:16.521Z,100688.56
2022-08-03T00:53:43.627Z,100676.38
2022-08-03T00:56:14.508Z,100677.78
2022-08-03T00:58:41.864Z,100674.91
2022-08-03T01:01:08.764Z,100631.94
2022-08-03T01:03:35.688Z,100670.31
2022-08-03T01:06:19.738Z,100676.59
2022-08-03T01:09:08.065Z,100673.41
2022-08-03T01:12:01.131Z,100672.25
2022-08-03T01:14:39.710Z,100677.31
2022-08-03T01:17:15.513Z,100680.87
2022-08-03T01:19:50.874Z,100680.75
2022-08-03T01:22:23.725Z,100690.41
2022-08-03T01:25:05.122Z,100695.88
2022-08-03T01:28:16.180Z,100690.44
2022-08-03T01:30:50.923Z,100702.63
2022-08-03T01:33:21.226Z,100685.03
2022-08-03T01:36:15.027Z,100688.84
2022-08-03T01:38:44.982Z,100689.16
2022-08-03T01:41:18.954Z,100693.88
2022-08-03T01:44:26.515Z,100656.81
2022-08-03T01:46:38.932Z,100685.69
2022-08-03T01:49:11.828Z,100684.97
2022-08-03T01:52:03.057Z,100692.59
2022-08-03T01:54:30.517Z,100686.88
2022-08-03T01:56:58.610Z,100688.16
2022-08-03T01:59:26.655Z,100685.84
2022-08-03T02:02:16.116Z,100688.13
2022-08-03T02:04:42.706Z,100681.56
2022-08-03T02:07:10.710Z,100681.31
2022-08-03T02:09:39.485Z,100677.16
2022-08-03T02:12:09.230Z,100677.00
2022-08-03T02:14:37.131Z,100680.72
2022-08-03T02:17:05.460Z,100672.88
2022-08-03T02:19:35.755Z,100678.31
2022-08-03T02:22:05.509Z,100679.44
2022-08-03T02:24:32.845Z,100680.87
2022-08-03T02:27:00.483Z,100685.84
2022-08-03T02:29:40.109Z,100689.28
2022-08-03T02:32:15.058Z,100682.41
2022-08-03T02:34:45.370Z,100682.56
2022-08-03T02:37:13.764Z,100690.72
2022-08-03T02:39:42.656Z,100680.59
2022-08-03T02:42:13.455Z,100675.44
2022-08-03T02:44:41.623Z,100679.00
2022-08-03T02:47:11.256Z,100669.59
2022-08-03T02:49:50.544Z,100674.13
2022-08-03T02:52:24.082Z,100673.28
2022-08-03T02:54:53.942Z,100680.00
2022-08-03T02:57:21.864Z,100673.69
2022-08-03T02:59:49.899Z,100677.00
2022-08-03T03:02:18.882Z,100681.41
2022-08-03T03:05:53.146Z,100685.84
2022-08-03T03:07:51.463Z,100682.41
2022-08-03T03:10:22.942Z,100689.28
2022-08-03T03:12:56.383Z,100684.72
2022-08-03T03:15:24.912Z,100678.13
2022-08-03T03:17:52.121Z,100682.44
2022-08-03T03:20:29.838Z,100674.56
2022-08-03T03:23:00.527Z,100674.16
2022-08-03T03:25:29.296Z,100684.44
2022-08-03T03:27:56.519Z,100689.16
2022-08-03T03:30:25.337Z,100683.28
2022-08-03T03:32:52.741Z,100682.88
2022-08-03T03:35:19.808Z,100676.41
2022-08-03T03:37:46.836Z,100693.00
2022-08-03T03:40:14.735Z,100687.84
2022-08-03T03:42:41.916Z,100688.09
2022-08-03T03:45:09.451Z,100683.56
2022-08-03T03:47:36.393Z,100689.69
2022-08-03T03:50:07.572Z,100690.41
2022-08-03T03:52:34.952Z,100693.53
2022-08-03T03:55:01.991Z,100685.56
2022-08-03T03:57:29.569Z,100690.72
2022-08-03T03:59:56.793Z,100693.84
2022-08-03T04:02:24.011Z,100696.12
2022-08-03T04:05:09.635Z,100694.56
2022-08-03T04:08:08.686Z,100688.78
2022-08-03T04:10:54.886Z,100684.50
2022-08-03T04:13:22.224Z,100668.06
2022-08-03T04:15:50.112Z,100706.53
2022-08-03T04:18:19.334Z,100724.63
2022-08-03T04:20:48.258Z,100712.91
2022-08-03T04:23:16.795Z,100714.72
2022-08-03T04:25:44.188Z,100703.97
2022-08-03T04:28:31.020Z,100705.37
2022-08-03T04:31:00.217Z,100711.31
2022-08-03T04:33:30.481Z,100714.91
2022-08-03T04:36:02.534Z,100717.72
2022-08-03T04:38:31.877Z,100732.03
2022-08-03T04:40:59.734Z,100713.41
2022-08-03T04:43:27.081Z,100694.37
2022-08-03T04:45:55.006Z,100694.06
2022-08-03T04:48:21.882Z,100701.50
2022-08-03T04:50:49.279Z,100678.22
2022-08-03T04:53:17.077Z,100673.78
2022-08-03T04:55:44.189Z,100667.06
2022-08-03T04:58:12.587Z,100636.75
2022-08-03T05:00:39.485Z,100626.44
2022-08-03T05:03:23.575Z,100643.03
2022-08-03T05:06:01.859Z,100640.47
2022-08-03T05:08:46.110Z,100619.78
2022-08-03T05:11:15.861Z,100614.91
2022-08-03T05:13:43.263Z,100647.84
2022-08-03T05:16:10.291Z,100646.13
2022-08-03T05:18:37.340Z,100679.78
2022-08-03T05:21:05.106Z,100703.16
2022-08-03T05:23:32.110Z,100677.69
2022-08-03T05:25:59.021Z,100679.06
2022-08-03T05:28:25.902Z,100686.09
2022-08-03T05:30:52.824Z,100709.72
2022-08-03T05:33:19.667Z,100707.16
2022-08-03T05:36:00.652Z,100709.78
2022-08-03T05:38:34.620Z,100718.75
2022-08-03T05:41:23.315Z,100713.28
2022-08-03T05:43:54.805Z,100715.09
2022-08-03T05:46:22.867Z,100710.16
2022-08-03T05:48:49.998Z,100711.69
2022-08-03T05:51:17.112Z,100717.19
2022-08-03T05:53:44.184Z,100718.16
2022-08-03T05:56:14.261Z,100712.47
2022-08-03T05:58:47.767Z,100707.13
2022-08-03T06:01:18.263Z,100708.81
2022-08-03T06:03:46.141Z,100714.00
2022-08-03T06:06:13.052Z,100703.72
2022-08-03T06:08:41.391Z,100700.00
2022-08-03T06:11:08.388Z,100705.56
2022-08-03T06:13:35.860Z,100713.03
2022-08-03T06:16:02.859Z,100726.38
2022-08-03T06:18:29.814Z,100718.13
2022-08-03T06:20:56.749Z,100721.87
2022-08-03T06:23:52.851Z,100719.25
2022-08-03T06:26:11.187Z,100721.13
2022-08-03T06:28:53.165Z,100696.53
2022-08-03T06:31:32.375Z,100732.91
2022-08-03T06:34:34.016Z,100748.44
2022-08-03T06:36:50.201Z,100754.84
2022-08-03T06:39:18.499Z,100741.34
2022-08-03T06:41:45.613Z,100756.88
2022-08-03T06:44:13.203Z,100746.59
2022-08-03T06:46:40.209Z,100757.88
2022-08-03T06:49:07.723Z,100752.03
2022-08-03T06:52:05.134Z,100751.56
2022-08-03T06:54:22.388Z,100744.22
2022-08-03T06:56:49.297Z,100747.97
2022-08-03T07:00:09.005Z,100754.34
2022-08-03T07:02:03.862Z,100748.94
2022-08-03T07:04:31.001Z,100749.97
2022-08-03T07:06:58.562Z,100740.16
2022-08-03T07:09:26.904Z,100723.12
2022-08-03T07:11:54.588Z,100735.22
2022-08-03T07:14:21.889Z,100715.88
2022-08-03T07:16:48.865Z,100716.94
2022-08-03T07:19:15.834Z,100709.94
2022-08-03T07:21:42.774Z,100700.56
2022-08-03T07:24:09.716Z,100688.84
2022-08-03T07:26:36.734Z,100682.81
2022-08-03T07:29:03.845Z,100675.44
2022-08-03T07:31:42.289Z,100675.91
2022-08-03T07:34:09.292Z,100665.66
2022-08-03T07:36:36.149Z,100668.03
2022-08-03T07:39:17.731Z,100669.22
2022-08-03T07:41:45.863Z,100665.62
2022-08-03T07:44:12.888Z,100669.66
2022-08-03T07:46:39.731Z,100671.22
2022-08-03T07:49:06.850Z,100671.63
2022-08-03T07:51:33.826Z,100663.44
2022-08-03T07:54:01.342Z,100653.34
2022-08-03T07:56:28.804Z,100664.78
2022-08-03T07:58:56.032Z,100671.19
2022-08-03T08:01:23.457Z,100628.50
2022-08-03T08:03:53.485Z,100651.66
2022-08-03T08:06:21.296Z,100642.25
2022-08-03T08:08:48.616Z,100659.19
2022-08-03T08:11:15.685Z,100645.22
2022-08-03T08:13:42.566Z,100631.38
2022-08-03T08:16:09.454Z,100614.72
2022-08-03T08:18:36.392Z,100612.63
2022-08-03T08:21:03.532Z,100589.44
2022-08-03T08:23:41.884Z,100614.84
2022-08-03T08:26:10.789Z,100615.91
2022-08-03T08:28:37.660Z,100637.47
2022-08-03T08:31:04.836Z,100633.69
2022-08-03T08:34:01.099Z,100615.19
2022-08-03T08:36:19.723Z,100613.44
2022-08-03T08:38:46.857Z,100613.22
2022-08-03T08:41:14.809Z,100617.94
2022-08-03T08:43:42.282Z,100620.25
2022-08-03T08:46:12.700Z,100604.66
2022-08-03T08:48:44.530Z,100610.94
2022-08-03T08:51:13.502Z,100605.88
2022-08-03T08:53:41.934Z,100619.22
2022-08-03T08:56:10.568Z,100603.09
2022-08-03T08:58:38.911Z,100606.22
2022-08-03T09:01:05.890Z,100615.81
2022-08-03T09:03:34.423Z,100616.03
2022-08-03T09:06:03.068Z,100613.81
2022-08-03T09:08:30.784Z,100615.88
2022-08-03T09:10:57.776Z,100617.31
2022-08-03T09:13:24.806Z,100596.00
2022-08-03T09:16:09.341Z,100585.19
2022-08-03T09:18:36.211Z,100609.75
2022-08-03T09:21:35.248Z,100591.19
2022-08-03T09:24:05.794Z,100618.44
2022-08-03T09:26:36.903Z,100613.50
2022-08-03T09:29:13.841Z,100604.50
2022-08-03T09:31:44.402Z,100601.31
2022-08-03T09:34:13.596Z,100618.06
2022-08-03T09:36:43.200Z,100610.03
2022-08-03T09:39:18.143Z,100593.22
2022-08-03T09:42:11.021Z,100578.72
2022-08-03T09:44:43.331Z,100570.66
2022-08-03T09:47:11.388Z,100582.31
2022-08-03T09:49:41.034Z,100575.06
2022-08-03T09:52:37.774Z,100571.72
2022-08-03T09:56:31.584Z,100564.16
2022-08-03T09:58:06.842Z,100569.66
2022-08-03T10:00:52.579Z,100546.03
2022-08-03T10:03:19.983Z,100540.69
2022-08-03T10:05:46.842Z,100537.88
2022-08-03T10:08:18.255Z,100516.72
2022-08-03T10:10:47.776Z,100551.69
2022-08-03T10:13:16.636Z,100548.16
2022-08-03T10:16:24.079Z,100539.44
2022-08-03T10:18:31.424Z,100528.97
2022-08-03T10:21:04.751Z,100530.91
2022-08-03T10:23:35.014Z,100528.75
2022-08-03T10:26:07.629Z,100539.66
2022-08-03T10:28:38.408Z,100524.87
2022-08-03T10:31:08.651Z,100519.88
2022-08-03T10:33:50.667Z,100516.84
2022-08-03T10:36:19.697Z,100504.94
2022-08-03T10:38:55.236Z,100507.72
2022-08-03T10:41:25.263Z,100511.75
2022-08-03T10:44:18.805Z,100525.56
2022-08-03T10:46:47.647Z,100541.03
2022-08-03T10:49:16.721Z,100528.28
2022-08-03T10:52:01.226Z,100511.66
2022-08-03T10:54:36.201Z,100520.88
2022-08-03T10:57:22.210Z,100541.84
2022-08-03T10:59:55.251Z,100526.34
2022-08-03T11:02:22.088Z,100531.13
2022-08-03T11:05:27.874Z,100536.81
2022-08-03T11:08:30.243Z,100507.38
2022-08-03T11:11:23.598Z,100513.38
2022-08-03T11:14:03.295Z,100498.81
2022-08-03T11:16:32.170Z,100481.78
2022-08-03T11:19:00.753Z,100480.69
2022-08-03T11:21:48.474Z,100476.22
2022-08-03T11:24:37.276Z,100489.47
2022-08-03T11:27:18.752Z,100498.78
2022-08-03T11:30:05.457Z,100488.37
2022-08-03T11:32:39.944Z,100495.13
2022-08-03T11:35:14.286Z,100486.09
2022-08-03T11:38:05.201Z,100485.44
2022-08-03T11:40:49.995Z,100492.34
2022-08-03T11:43:30.408Z,100486.47
2022-08-03T11:46:13.776Z,100478.47
2022-08-03T11:49:10.287Z,100445.50
2022-08-03T11:51:40.093Z,100445.22
2022-08-03T11:54:07.823Z,100465.16
2022-08-03T11:56:46.687Z,100479.06
2022-08-03T11:59:20.283Z,100476.41
2022-08-03T12:01:48.402Z,100471.84
2022-08-03T12:04:16.415Z,100465.00
2022-08-03T12:07:01.243Z,100472.47
2022-08-03T12:09:28.196Z,100463.72
2022-08-03T12:11:57.768Z,100472.09
2022-08-03T12:14:48.454Z,100467.41
2022-08-03T12:17:16.568Z,100447.09
2022-08-03T12:19:44.891Z,100453.87
2022-08-03T12:22:11.792Z,100446.44
2022-08-03T12:24:46.930Z,100450.31
2022-08-03T12:27:23.592Z,100451.88
2022-08-03T12:29:58.451Z,100440.19
2022-08-03T12:32:30.261Z,100429.66
2022-08-03T12:35:01.035Z,100426.81
2022-08-03T12:37:28.784Z,100424.47
2022-08-03T12:40:09.331Z,100398.56
2022-08-03T12:42:38.540Z,100408.91
2022-08-03T12:45:20.804Z,100402.28
2022-08-03T12:48:01.543Z,100390.88
2022-08-03T12:50:33.580Z,100397.84
2022-08-03T12:53:01.941Z,100392.00
2022-08-03T12:55:57.326Z,100387.28
2022-08-03T12:58:34.160Z,100380.50
2022-08-03T13:01:05.225Z,100371.25
2022-08-03T13:03:46.016Z,100380.63
2022-08-03T13:06:23.442Z,100393.94
2022-08-03T13:09:01.043Z,100390.34
2022-08-03T13:11:52.549Z,100391.81
2022-08-03T13:14:19.549Z,100392.97
2022-08-03T13:16:50.346Z,100383.16
2022-08-03T13:19:17.640Z,100382.38
2022-08-03T13:22:01.616Z,100381.66
2022-08-03T13:24:32.165Z,100371.81
2022-08-03T13:26:59.924Z,100363.31
2022-08-03T13:29:27.946Z,100352.69
2022-08-03T13:31:54.841Z,100367.56
2022-08-03T13:34:23.915Z,100372.09
2022-08-03T13:37:09.294Z,100374.03
2022-08-03T13:39:48.138Z,100359.75
2022-08-03T13:42:25.376Z,100339.97
2022-08-03T13:44:52.387Z,100366.06
2022-08-03T13:47:20.278Z,100362.00
2022-08-03T13:49:59.650Z,100363.56
2022-08-03T13:52:33.074Z,100364.56
2022-08-03T13:55:00.509Z,100366.63
2022-08-03T13:58:02.560Z,100370.59
2022-08-03T14:00:27.413Z,100364.19
2022-08-03T14:03:02.774Z,100371.50
2022-08-03T14:05:31.937Z,100352.81
2022-08-03T14:08:04.434Z,100356.28
2022-08-03T14:10:37.082Z,100351.28
2022-08-03T14:13:05.058Z,100343.69
2022-08-03T14:15:31.974Z,100346.56
2022-08-03T14:18:04.240Z,100355.97
2022-08-03T14:20:36.669Z,100346.84
2022-08-03T14:23:04.671Z,100346.78
2022-08-03T14:25:43.204Z,100332.06
2022-08-03T14:28:16.903Z,100344.09
2022-08-03T14:30:43.785Z,100345.47
2022-08-03T14:33:10.615Z,100339.75
2022-08-03T14:35:37.516Z,100341.69
2022-08-03T14:38:05.090Z,100335.75
2022-08-03T14:40:36.476Z,100337.38
2022-08-03T14:43:03.345Z,100341.28
2022-08-03T14:45:30.234Z,100321.50
2022-08-03T14:50:30.562Z,100334.09
2022-08-03T14:50:50.253Z,100331.78
2022-08-03T14:53:18.281Z,100326.38
2022-08-03T14:55:51.138Z,100333.00
2022-08-03T14:58:22.696Z,100328.31
2022-08-03T15:00:50.910Z,100327.63
2022-08-03T15:03:21.640Z,100335.78
2022-08-03T15:05:49.421Z,100326.97
2022-08-03T15:08:16.388Z,100340.50
2022-08-03T15:10:44.526Z,100353.41
2022-08-03T15:13:17.147Z,100359.06
2022-08-03T15:15:44.146Z,100355.09
2022-08-03T15:18:11.201Z,100360.78
2022-08-03T15:20:46.930Z,100354.12
2022-08-03T15:23:15.410Z,100351.34
2022-08-03T15:26:03.664Z,100358.00
2022-08-03T15:28:31.658Z,100356.63
2022-08-03T15:30:58.887Z,100357.72
2022-08-03T15:33:25.826Z,100346.25
2022-08-03T15:35:53.370Z,100346.63
2022-08-03T15:38:25.972Z,100345.53
2022-08-03T15:40:57.012Z,100341.78
2022-08-03T15:43:24.032Z,100331.25
2022-08-03T15:46:19.005Z,100339.56
2022-08-03T15:48:38.871Z,100350.53
2022-08-03T15:51:06.390Z,100346.69
2022-08-03T15:53:33.740Z,100340.88
2022-08-03T15:56:03.344Z,100335.56
2022-08-03T15:59:03.142Z,100340.19
2022-08-03T16:01:21.353Z,100320.72
2022-08-03T16:03:48.618Z,100342.66
2022-08-03T16:06:15.964Z,100342.56
2022-08-03T16:08:43.736Z,100346.03
2022-08-03T16:11:11.248Z,100346.59
2022-08-03T16:14:13.656Z,100345.50
2022-08-03T16:16:25.030Z,100343.06
2022-08-03T16:18:52.242Z,100338.59
2022-08-03T16:21:20.024Z,100338.22
2022-08-03T16:23:48.921Z,100338.22
2022-08-03T16:26:15.791Z,100334.00
2022-08-03T16:28:42.901Z,100341.75
2022-08-03T16:31:09.830Z,100339.81
2022-08-03T16:33:36.713Z,100340.75
2022-08-03T16:36:04.038Z,100341.66
2022-08-03T16:38:31.334Z,100332.78
2022-08-03T16:40:58.494Z,100338.75
2022-08-03T16:43:25.450Z,100348.13
2022-08-03T16:45:52.908Z,100341.59
2022-08-03T16:48:20.252Z,100348.91
2022-08-03T16:50:48.993Z,100353.44
2022-08-03T16:53:17.181Z,100355.34
2022-08-03T16:56:00.416Z,100357.97
2022-08-03T16:58:41.763Z,100367.44
2022-08-03T17:01:24.071Z,100363.63
2022-08-03T17:04:02.046Z,100378.38
2022-08-03T17:06:35.650Z,100379.03
2022-08-03T17:09:09.219Z,100371.03
2022-08-03T17:11:44.174Z,100378.31
2022-08-03T17:14:14.853Z,100381.12
2022-08-03T17:16:52.152Z,100380.09
2022-08-03T17:19:24.060Z,100384.84
2022-08-03T17:22:04.903Z,100388.28
2022-08-03T17:24:33.386Z,100400.03
2022-08-03T17:27:08.556Z,100396.87
2022-08-03T17:29:45.227Z,100408.22
2022-08-03T17:32:18.433Z,100410.78
2022-08-03T17:34:49.260Z,100418.25
2022-08-03T17:37:27.295Z,100413.22
2022-08-03T17:40:04.161Z,100430.03
2022-08-03T17:42:33.207Z,100425.44
2022-08-03T17:45:03.504Z,100427.56
2022-08-03T17:47:41.215Z,100444.59
2022-08-03T17:50:23.637Z,100448.00
2022-08-03T17:53:07.196Z,100459.94
2022-08-03T17:55:57.600Z,100453.34
2022-08-03T17:58:55.514Z,100457.19
2022-08-03T18:02:11.540Z,100462.50
2022-08-03T18:05:00.737Z,100463.31
2022-08-03T18:07:41.713Z,100458.25
2022-08-03T18:10:11.250Z,100463.09
2022-08-03T18:12:52.887Z,100471.81
2022-08-03T18:15:51.535Z,100477.25
2022-08-03T18:18:29.220Z,100473.84
2022-08-03T18:21:04.617Z,100468.09
2022-08-03T18:23:36.729Z,100473.34
2022-08-03T18:26:12.080Z,100478.59
2022-08-03T18:28:39.448Z,100491.31
2022-08-03T18:31:09.737Z,100486.19
2022-08-03T18:34:16.594Z,100485.28
2022-08-03T18:36:30.138Z,100498.37
2022-08-03T18:39:00.062Z,100493.00
2022-08-03T18:41:33.774Z,100508.19
2022-08-03T18:44:07.606Z,100503.00
2022-08-03T18:46:50.723Z,100518.94
2022-08-03T18:49:39.975Z,100525.81
2022-08-03T18:52:19.695Z,100530.75
2022-08-03T18:55:20.642Z,100540.38
2022-08-03T18:58:04.314Z,100544.97
2022-08-03T19:00:54.190Z,100547.72
2022-08-03T19:03:24.513Z,100550.00
2022-08-03T19:09:07.279Z,100538.94
2022-08-03T19:12:14.442Z,100550.75
2022-08-03T19:14:30.430Z,100559.50
2022-08-03T19:17:07.714Z,100555.25
2022-08-03T19:19:43.970Z,100571.06
2022-08-03T19:22:15.801Z,100577.16
2022-08-03T19:24:45.913Z,100571.75
2022-08-03T19:27:13.477Z,100575.47
2022-08-03T19:29:58.976Z,100574.62
2022-08-03T19:32:32.285Z,100570.44
2022-08-03T19:35:01.491Z,100568.75
2022-08-03T19:37:38.305Z,100566.00
2022-08-03T19:40:12.457Z,100560.78
2022-08-03T19:42:43.139Z,100567.31
2022-08-03T19:45:14.360Z,100554.81
2022-08-03T19:48:09.743Z,100556.44
2022-08-03T19:50:38.225Z,100561.66
2022-08-03T19:53:13.005Z,100553.75
2022-08-03T19:55:48.785Z,100560.50
2022-08-03T19:58:17.727Z,100564.00
2022-08-03T20:00:55.543Z,100559.00
2022-08-03T20:03:24.892Z,100565.56
2022-08-03T20:05:55.020Z,100564.59
2022-08-03T20:08:28.089Z,100565.47
2022-08-03T20:10:55.244Z,100575.28
2022-08-03T20:13:22.179Z,100579.22
2022-08-03T20:15:55.261Z,100570.88
2022-08-03T20:18:24.056Z,100573.81
2022-08-03T20:20:52.523Z,100579.75
2022-08-03T20:23:20.313Z,100574.97
2022-08-03T20:25:58.142Z,100587.06
2022-08-03T20:28:35.587Z,100612.66
2022-08-03T20:31:18.850Z,100624.94
2022-08-03T20:33:48.785Z,100632.28
2022-08-03T20:36:17.798Z,100622.16
2022-08-03T20:38:47.720Z,100626.63
2022-08-03T20:41:16.233Z,100626.09
2022-08-03T20:43:43.832Z,100620.63
2022-08-03T20:46:35.336Z,100615.81
2022-08-03T20:48:59.059Z,100621.59
2022-08-03T20:51:49.498Z,100620.94
2022-08-03T20:54:28.770Z,100610.34
2022-08-03T20:56:58.113Z,100618.22
2022-08-03T20:59:35.053Z,100614.66
2022-08-03T21:02:13.933Z,100615.00
2022-08-03T21:04:47.325Z,100621.31
2022-08-03T21:07:24.274Z,100609.69
2022-08-03T21:09:55.453Z,100605.94
2022-08-03T21:12:38.262Z,100610.72
2022-08-03T21:13:08.789Z,100546.72
2022-08-03T21:15:09.590Z,100614.81
2022-08-03T21:17:58.965Z,100611.41
2022-08-03T21:20:31.292Z,100616.72
2022-08-03T21:22:59.832Z,100614.84
2022-08-03T21:25:31.539Z,100616.06
2022-08-03T21:28:00.085Z,100623.56
2022-08-03T21:30:29.984Z,100619.47
2022-08-03T21:32:58.023Z,100629.87
2022-08-03T21:35:25.472Z,100632.28
2022-08-03T21:38:11.730Z,100624.41
2022-08-03T21:40:40.652Z,100637.56
2022-08-03T21:43:08.060Z,100642.00
2022-08-03T21:45:47.442Z,100656.34
2022-08-03T21:48:14.514Z,100661.06
2022-08-03T21:50:42.713Z,100653.19
2022-08-03T21:53:10.648Z,100657.47
2022-08-03T21:55:44.663Z,100665.28
2022-08-03T21:58:13.962Z,100672.44
2022-08-03T22:00:42.961Z,100669.34
2022-08-03T22:03:17.264Z,100671.53
2022-08-03T22:05:45.086Z,100674.09
2022-08-03T22:08:14.968Z,100682.78
2022-08-03T22:10:45.815Z,100677.78
2022-08-03T22:13:14.460Z,100669.56
2022-08-03T22:15:41.456Z,100676.44
2022-08-03T22:18:09.180Z,100674.03
2022-08-03T22:20:36.174Z,100654.03
2022-08-03T22:23:04.960Z,100668.66
2022-08-03T22:25:34.035Z,100653.19
2022-08-03T22:28:05.140Z,100669.97
2022-08-03T22:30:33.289Z,100653.50
2022-08-03T22:33:01.727Z,100666.84
2022-08-03T22:35:28.812Z,100652.28
2022-08-03T22:37:57.910Z,100645.44
2022-08-03T22:40:26.584Z,100647.59
2022-08-03T22:42:53.571Z,100644.41
2022-08-03T22:46:08.485Z,100644.59
2022-08-03T22:48:08.285Z,100656.25
2022-08-03T22:50:35.671Z,100652.09
2022-08-03T22:53:02.943Z,100670.94
2022-08-03T22:55:30.009Z,100665.19
2022-08-03T22:57:56.895Z,100702.47
2022-08-03T23:00:24.619Z,100690.12
2022-08-03T23:02:52.197Z,100710.31
2022-08-03T23:06:00.305Z,100718.19
2022-08-03T23:08:21.804Z,100700.03
2022-08-03T23:10:50.506Z,100705.56
2022-08-03T23:13:18.047Z,100710.03
2022-08-03T23:15:52.049Z,100709.50
2022-08-03T23:18:19.545Z,100710.38
2022-08-03T23:20:50.615Z,100716.47
2022-08-03T23:23:19.770Z,100716.56
2022-08-03T23:25:48.979Z,100701.63
2022-08-03T23:28:19.172Z,100704.50
2022-08-03T23:30:46.813Z,100706.09
2022-08-03T23:33:14.987Z,100706.00
2022-08-03T23:36:28.529Z,100700.19
2022-08-03T23:38:45.097Z,100701.41
2022-08-03T23:41:12.625Z,100700.41
2022-08-03T23:43:51.326Z,100698.78
2022-08-03T23:46:21.787Z,100692.38
2022-08-03T23:48:48.688Z,100691.37
2022-08-03T23:51:38.412Z,100684.81
2022-08-03T23:54:49.949Z,100681.22
2022-08-03T23:57:23.051Z,100679.75
2022-08-03T23:59:50.629Z,100664.41
